createdAt,value
2023-12-16T00:01:44.770Z,5.30
2023-12-16T00:04:32.737Z,6.03
2023-12-16T00:07:20.517Z,6.43
2023-12-16T00:10:08.661Z,5.47
2023-12-16T00:12:56.408Z,5.07
2023-12-16T00:15:44.792Z,5.85
2023-12-16T00:18:36.283Z,6.15
2023-12-16T00:21:23.937Z,6.00
2023-12-16T00:24:11.789Z,5.20
2023-12-16T00:26:59.689Z,5.78
2023-12-16T00:29:47.302Z,5.97
2023-12-16T00:32:35.035Z,6.47
2023-12-16T00:35:22.877Z,7.05
2023-12-16T00:38:10.491Z,6.63
2023-12-16T00:41:00.405Z,6.20
2023-12-16T00:43:47.968Z,5.60
2023-12-16T00:46:36.081Z,6.90
2023-12-16T00:49:23.943Z,4.93
2023-12-16T00:52:11.686Z,6.72
2023-12-16T00:54:59.306Z,6.57
2023-12-16T00:57:49.532Z,6.47
2023-12-16T01:00:37.304Z,7.45
2023-12-16T01:03:25.180Z,6.50
2023-12-16T01:06:12.906Z,6.88
2023-12-16T01:09:00.541Z,7.22
2023-12-16T01:11:48.251Z,6.75
2023-12-16T01:14:35.881Z,6.18
2023-12-16T01:17:23.509Z,6.10
2023-12-16T01:20:11.543Z,6.63
2023-12-16T01:23:01.785Z,5.88
2023-12-16T01:25:49.443Z,6.68
2023-12-16T01:28:37.088Z,4.80
2023-12-16T01:31:24.877Z,6.03
2023-12-16T01:34:15.269Z,5.88
2023-12-16T01:37:03.042Z,5.15
2023-12-16T01:39:50.634Z,5.18
2023-12-16T01:42:38.300Z,5.38
2023-12-16T01:45:25.965Z,5.70
2023-12-16T01:48:14.156Z,5.25
2023-12-16T01:51:04.593Z,6.10
2023-12-16T01:53:52.398Z,5.10
2023-12-16T01:56:40.169Z,6.38
2023-12-16T01:59:28.146Z,6.45
2023-12-16T02:02:16.078Z,6.50
2023-12-16T02:05:04.731Z,7.15
2023-12-16T02:07:52.646Z,5.75
2023-12-16T02:10:40.297Z,6.75
2023-12-16T02:13:27.998Z,6.43
2023-12-16T02:16:17.955Z,5.20
2023-12-16T02:19:11.552Z,5.97
2023-12-16T02:21:59.320Z,5.75
2023-12-16T02:24:47.920Z,5.80
2023-12-16T02:27:36.012Z,4.60
2023-12-16T02:30:26.087Z,5.43
2023-12-16T02:33:14.272Z,5.53
2023-12-16T02:36:02.450Z,6.60
2023-12-16T02:38:50.186Z,6.80
2023-12-16T02:41:37.839Z,7.45
2023-12-16T02:44:25.540Z,5.38
2023-12-16T02:47:13.215Z,5.07
2023-12-16T02:50:01.824Z,8.70
2023-12-16T02:52:49.921Z,11.60
2023-12-16T02:55:40.388Z,11.88
2023-12-16T02:58:28.089Z,9.77
2023-12-16T03:01:16.816Z,7.88
2023-12-16T03:04:04.570Z,7.28
2023-12-16T03:06:52.213Z,8.77
2023-12-16T03:09:41.055Z,7.15
2023-12-16T03:12:32.033Z,6.13
2023-12-16T03:15:19.741Z,7.60
2023-12-16T03:18:07.541Z,7.53
2023-12-16T03:20:55.671Z,7.45
2023-12-16T03:23:46.222Z,8.20
2023-12-16T03:26:33.894Z,7.00
2023-12-16T03:29:21.629Z,6.55
2023-12-16T03:32:12.159Z,6.43
2023-12-16T03:35:02.694Z,5.40
2023-12-16T03:37:50.852Z,5.55
2023-12-16T03:40:38.696Z,5.60
2023-12-16T03:43:26.399Z,5.65
2023-12-16T03:46:14.158Z,5.90
2023-12-16T03:49:02.217Z,5.82
2023-12-16T03:51:52.517Z,5.22
2023-12-16T03:54:40.066Z,5.90
2023-12-16T03:57:30.846Z,5.88
2023-12-16T04:00:20.896Z,5.78
2023-12-16T04:03:08.817Z,5.72
2023-12-16T04:05:56.587Z,6.40
2023-12-16T04:08:44.249Z,5.95
2023-12-16T04:11:32.250Z,5.90
2023-12-16T04:14:19.975Z,5.13
2023-12-16T04:17:07.654Z,5.10
2023-12-16T04:19:56.104Z,5.60
2023-12-16T04:22:44.722Z,6.55
2023-12-16T04:25:32.438Z,6.40
2023-12-16T04:28:20.191Z,6.03
2023-12-16T04:31:28.013Z,4.32
2023-12-16T04:34:16.210Z,5.60
2023-12-16T04:37:21.441Z,5.70
2023-12-16T04:40:23.989Z,4.72
2023-12-16T04:43:17.556Z,5.43
2023-12-16T04:46:05.578Z,6.10
2023-12-16T04:48:55.766Z,6.80
2023-12-16T04:51:43.496Z,6.40
2023-12-16T04:54:31.279Z,7.38
2023-12-16T04:57:19.193Z,9.77
2023-12-16T05:00:09.320Z,10.40
2023-12-16T05:02:57.111Z,8.35
2023-12-16T05:05:44.990Z,9.73
2023-12-16T05:08:32.586Z,8.05
2023-12-16T05:11:23.891Z,7.32
2023-12-16T05:14:11.512Z,6.87
2023-12-16T05:17:00.817Z,6.25
2023-12-16T05:19:49.358Z,5.63
2023-12-16T05:22:39.459Z,11.95
2023-12-16T05:25:32.945Z,10.32
2023-12-16T05:28:20.669Z,8.07
2023-12-16T05:31:08.587Z,8.30
2023-12-16T05:33:56.597Z,6.45
2023-12-16T05:36:44.349Z,6.07
2023-12-16T05:39:32.016Z,5.60
2023-12-16T05:42:20.121Z,4.85
2023-12-16T05:45:08.793Z,5.20
2023-12-16T05:47:56.493Z,4.47
2023-12-16T05:50:44.220Z,4.88
2023-12-16T05:53:33.227Z,4.90
2023-12-16T05:56:20.900Z,5.35
2023-12-16T05:59:11.551Z,7.85
2023-12-16T06:01:59.276Z,9.13
2023-12-16T06:04:47.045Z,9.88
2023-12-16T06:07:34.673Z,7.07
2023-12-16T06:10:22.263Z,6.75
2023-12-16T06:13:10.176Z,5.95
2023-12-16T06:16:08.175Z,5.35
2023-12-16T06:19:04.796Z,6.28
2023-12-16T06:21:52.600Z,5.75
2023-12-16T06:24:40.347Z,6.72
2023-12-16T06:27:31.469Z,7.30
2023-12-16T06:30:19.626Z,8.43
2023-12-16T06:33:07.270Z,6.55
2023-12-16T06:35:55.621Z,6.07
2023-12-16T06:38:43.303Z,7.00
2023-12-16T06:41:31.616Z,5.65
2023-12-16T06:44:22.224Z,5.75
2023-12-16T06:47:09.821Z,6.20
2023-12-16T06:49:57.625Z,6.32
2023-12-16T06:52:45.360Z,6.55
2023-12-16T06:55:35.746Z,8.07
2023-12-16T06:58:23.496Z,7.75
2023-12-16T07:01:16.146Z,6.65
2023-12-16T07:04:04.160Z,5.53
2023-12-16T07:06:52.009Z,8.52
2023-12-16T07:09:42.765Z,10.55
2023-12-16T07:12:30.506Z,8.40
2023-12-16T07:15:21.357Z,7.88
2023-12-16T07:18:09.178Z,7.10
2023-12-16T07:20:56.915Z,10.05
2023-12-16T07:23:44.792Z,8.35
2023-12-16T07:26:32.626Z,7.53
2023-12-16T07:29:22.108Z,5.75
2023-12-16T07:32:09.991Z,7.35
2023-12-16T07:35:00.701Z,10.82
2023-12-16T07:37:48.401Z,8.77
2023-12-16T07:40:36.647Z,7.65
2023-12-16T07:43:24.360Z,7.57
2023-12-16T07:46:12.116Z,8.98
2023-12-16T07:49:02.612Z,9.80
2023-12-16T07:51:50.291Z,7.50
2023-12-16T07:54:38.004Z,7.70
2023-12-16T07:57:25.731Z,6.80
2023-12-16T08:00:13.713Z,8.80
2023-12-16T08:03:01.334Z,9.15
2023-12-16T08:05:49.109Z,12.48
2023-12-16T08:08:37.719Z,9.93
2023-12-16T08:11:25.444Z,8.95
2023-12-16T08:14:14.207Z,7.85
2023-12-16T08:17:01.969Z,7.93
2023-12-16T08:19:50.109Z,7.95
2023-12-16T08:22:37.905Z,7.20
2023-12-16T08:25:25.626Z,8.82
2023-12-16T08:28:14.457Z,13.63
2023-12-16T08:31:02.477Z,8.27
2023-12-16T08:33:50.373Z,6.07
2023-12-16T08:36:37.965Z,6.43
2023-12-16T08:39:25.638Z,6.85
2023-12-16T08:42:13.345Z,5.50
2023-12-16T08:45:01.202Z,6.75
2023-12-16T08:47:48.845Z,7.32
2023-12-16T08:50:36.416Z,7.22
2023-12-16T08:53:24.996Z,7.85
2023-12-16T08:56:12.858Z,6.55
2023-12-16T08:59:00.401Z,7.05
2023-12-16T09:01:48.058Z,6.72
2023-12-16T09:04:35.767Z,5.88
2023-12-16T09:07:23.530Z,6.13
2023-12-16T09:10:11.453Z,7.05
2023-12-16T09:13:00.615Z,6.95
2023-12-16T09:15:48.247Z,5.75
2023-12-16T09:18:38.824Z,7.40
2023-12-16T09:21:26.627Z,6.65
2023-12-16T09:24:14.173Z,8.02
2023-12-16T09:27:01.892Z,7.97
2023-12-16T09:29:49.638Z,6.80
2023-12-16T09:32:37.497Z,8.95
2023-12-16T09:35:25.213Z,11.50
2023-12-16T09:38:12.779Z,7.93
2023-12-16T09:41:00.632Z,6.82
2023-12-16T09:43:51.375Z,7.70
2023-12-16T09:46:39.540Z,7.30
2023-12-16T09:49:27.948Z,7.18
2023-12-16T09:52:15.993Z,6.60
2023-12-16T09:55:03.976Z,6.25
2023-12-16T09:57:51.665Z,6.25
2023-12-16T10:00:42.380Z,5.70
2023-12-16T10:03:31.214Z,6.47
2023-12-16T10:06:18.969Z,6.20
2023-12-16T10:09:06.684Z,6.20
2023-12-16T10:11:56.089Z,7.22
2023-12-16T10:14:47.344Z,6.68
2023-12-16T10:17:35.032Z,6.73
2023-12-16T10:20:24.605Z,7.93
2023-12-16T10:23:14.211Z,6.22
2023-12-16T10:26:01.963Z,6.93
2023-12-16T10:28:50.487Z,5.70
2023-12-16T10:31:38.699Z,5.57
2023-12-16T10:34:30.824Z,7.20
2023-12-16T10:37:18.515Z,8.15
2023-12-16T10:40:06.363Z,8.25
2023-12-16T10:42:54.291Z,6.80
2023-12-16T10:45:41.816Z,6.95
2023-12-16T10:48:31.716Z,7.43
2023-12-16T10:51:20.427Z,7.07
2023-12-16T10:54:11.302Z,10.73
2023-12-16T10:57:28.104Z,5.65
2023-12-16T11:00:21.876Z,5.40
2023-12-16T11:03:13.671Z,6.88
2023-12-16T11:06:04.941Z,6.53
2023-12-16T11:08:53.871Z,4.88
2023-12-16T11:11:45.212Z,5.60
2023-12-16T11:14:33.463Z,15.20
2023-12-16T11:17:25.959Z,22.38
2023-12-16T11:20:23.531Z,12.18
2023-12-16T11:23:11.804Z,13.55
2023-12-16T11:26:04.104Z,10.68
2023-12-16T11:28:52.625Z,16.70
2023-12-16T11:31:41.161Z,27.27
2023-12-16T11:34:45.183Z,22.23
2023-12-16T11:37:36.268Z,11.95
2023-12-16T11:40:41.680Z,9.15
2023-12-16T11:43:48.208Z,9.68
2023-12-16T11:46:36.719Z,6.82
2023-12-16T11:49:24.543Z,5.03
2023-12-16T11:52:12.696Z,6.15
2023-12-16T11:55:00.807Z,5.38
2023-12-16T11:57:48.941Z,6.53
2023-12-16T12:00:37.729Z,6.25
2023-12-16T12:03:25.582Z,7.43
2023-12-16T12:06:13.302Z,5.93
2023-12-16T12:09:01.695Z,8.40
2023-12-16T12:12:08.049Z,5.50
2023-12-16T12:14:56.088Z,7.88
2023-12-16T12:17:44.649Z,8.50
2023-12-16T12:20:32.393Z,6.32
2023-12-16T12:23:20.049Z,5.38
2023-12-16T12:26:07.897Z,5.45
2023-12-16T12:28:59.080Z,4.93
2023-12-16T12:31:47.311Z,8.93
2023-12-16T12:34:35.076Z,4.95
2023-12-16T12:37:24.307Z,6.88
2023-12-16T12:40:15.922Z,6.20
2023-12-16T12:43:04.099Z,6.10
2023-12-16T12:45:51.898Z,8.73
2023-12-16T12:48:41.417Z,7.07
2023-12-16T12:51:29.094Z,7.13
2023-12-16T12:54:16.829Z,4.90
2023-12-16T12:57:04.783Z,5.22
2023-12-16T13:00:00.576Z,8.02
2023-12-16T13:02:51.250Z,7.63
2023-12-16T13:05:39.457Z,8.50
2023-12-16T13:08:27.305Z,6.20
2023-12-16T13:11:14.997Z,9.38
2023-12-16T13:14:02.616Z,9.50
2023-12-16T13:16:50.268Z,9.32
2023-12-16T13:19:38.219Z,7.45
2023-12-16T13:22:26.360Z,11.70
2023-12-16T13:25:14.928Z,8.15
2023-12-16T13:28:03.617Z,10.43
2023-12-16T13:30:55.433Z,10.85
2023-12-16T13:33:44.693Z,7.45
2023-12-16T13:36:48.974Z,8.77
2023-12-16T13:39:38.840Z,8.43
2023-12-16T13:42:26.632Z,8.75
2023-12-16T13:45:14.557Z,10.10
2023-12-16T13:48:02.691Z,7.95
2023-12-16T13:50:50.757Z,7.82
2023-12-16T13:53:38.900Z,9.05
2023-12-16T13:56:26.743Z,9.85
2023-12-16T13:59:14.680Z,11.05
2023-12-16T14:02:02.687Z,11.68
2023-12-16T14:04:51.531Z,16.40
2023-12-16T14:07:40.310Z,21.15
2023-12-16T14:10:28.150Z,16.55
2023-12-16T14:13:15.757Z,10.50
2023-12-16T14:16:03.353Z,9.23
2023-12-16T14:18:51.228Z,8.80
2023-12-16T14:21:38.900Z,10.43
2023-12-16T14:24:26.660Z,7.43
2023-12-16T14:27:14.230Z,8.48
2023-12-16T14:30:04.105Z,8.13
2023-12-16T14:32:52.186Z,8.30
2023-12-16T14:35:39.874Z,6.97
2023-12-16T14:38:27.372Z,6.40
2023-12-16T14:41:15.315Z,5.05
2023-12-16T14:44:03.014Z,6.85
2023-12-16T14:46:50.574Z,5.45
2023-12-16T14:49:38.190Z,8.82
2023-12-16T14:52:26.045Z,8.52
2023-12-16T14:55:13.978Z,8.70
2023-12-16T14:58:04.564Z,8.32
2023-12-16T15:00:52.125Z,10.75
2023-12-16T15:03:40.967Z,7.78
2023-12-16T15:06:30.825Z,9.40
2023-12-16T15:09:19.175Z,11.45
2023-12-16T15:12:07.060Z,9.05
2023-12-16T15:14:54.948Z,7.65
2023-12-16T15:17:42.937Z,7.45
2023-12-16T15:20:31.085Z,9.43
2023-12-16T15:23:18.831Z,41.40
2023-12-16T15:26:07.158Z,13.25
2023-12-16T15:28:54.863Z,10.70
2023-12-16T15:31:45.376Z,7.20
2023-12-16T15:34:33.220Z,7.57
2023-12-16T15:37:21.268Z,6.03
2023-12-16T15:40:10.652Z,4.40
2023-12-16T15:42:58.399Z,20.35
2023-12-16T15:45:46.036Z,34.45
2023-12-16T15:48:33.690Z,12.27
2023-12-16T15:51:27.697Z,7.32
2023-12-16T15:54:15.922Z,16.33
2023-12-16T15:57:03.603Z,11.23
2023-12-16T15:59:53.682Z,10.85
2023-12-16T16:02:43.422Z,11.85
2023-12-16T16:05:32.305Z,15.23
2023-12-16T16:08:20.000Z,21.13
2023-12-16T16:11:08.133Z,14.25
2023-12-16T16:13:55.850Z,13.30
2023-12-16T16:16:43.590Z,8.45
2023-12-16T16:19:31.574Z,7.57
2023-12-16T16:22:19.447Z,8.15
2023-12-16T16:25:10.062Z,8.98
2023-12-16T16:27:58.549Z,9.37
2023-12-16T16:30:47.135Z,12.43
2023-12-16T16:33:35.112Z,12.98
2023-12-16T16:36:25.981Z,9.60
2023-12-16T16:39:14.159Z,11.55
2023-12-16T16:42:04.864Z,12.10
2023-12-16T16:44:52.738Z,13.52
2023-12-16T16:47:40.899Z,12.73
2023-12-16T16:50:29.667Z,13.93
2023-12-16T16:53:17.649Z,12.65
2023-12-16T16:56:05.674Z,12.70
2023-12-16T16:58:53.505Z,11.23
2023-12-16T17:01:41.536Z,12.57
2023-12-16T17:04:29.337Z,15.07
2023-12-16T17:07:17.159Z,14.27
2023-12-16T17:10:08.294Z,10.82
2023-12-16T17:12:57.363Z,12.70
2023-12-16T17:15:45.559Z,9.73
2023-12-16T17:18:33.429Z,12.05
2023-12-16T17:21:21.247Z,10.25
2023-12-16T17:24:09.840Z,9.77
2023-12-16T17:26:59.660Z,16.25
2023-12-16T17:29:48.637Z,11.10
2023-12-16T17:32:38.490Z,12.88
2023-12-16T17:35:27.947Z,13.52
2023-12-16T17:38:17.429Z,13.98
2023-12-16T17:41:08.069Z,14.07
2023-12-16T17:43:55.867Z,12.80
2023-12-16T17:46:43.884Z,12.43
2023-12-16T17:49:32.105Z,9.77
2023-12-16T17:52:19.971Z,10.45
2023-12-16T17:55:07.795Z,10.20
2023-12-16T17:57:55.684Z,11.23
2023-12-16T18:00:46.037Z,11.38
2023-12-16T18:03:35.983Z,12.40
2023-12-16T18:06:23.677Z,10.73
2023-12-16T18:09:11.479Z,13.65
2023-12-16T18:11:59.266Z,9.77
2023-12-16T18:14:47.094Z,9.27
2023-12-16T18:17:35.021Z,7.30
2023-12-16T18:20:28.519Z,7.88
2023-12-16T18:23:16.178Z,7.05
2023-12-16T18:26:05.407Z,4.95
2023-12-16T18:28:52.964Z,6.35
2023-12-16T18:31:40.668Z,7.38
2023-12-16T18:34:28.461Z,8.40
2023-12-16T18:37:16.391Z,8.77
2023-12-16T18:40:04.278Z,11.38
2023-12-16T18:42:51.989Z,13.95
2023-12-16T18:45:39.795Z,17.63
2023-12-16T18:48:27.847Z,15.05
2023-12-16T18:51:15.677Z,13.32
2023-12-16T18:54:03.516Z,11.15
2023-12-16T18:56:51.461Z,14.02
2023-12-16T18:59:39.817Z,14.20
2023-12-16T19:02:29.105Z,10.10
2023-12-16T19:05:18.786Z,26.48
2023-12-16T19:08:07.877Z,20.15
2023-12-16T19:10:55.667Z,12.57
2023-12-16T19:13:43.291Z,13.98
2023-12-16T19:16:30.882Z,13.27
2023-12-16T19:19:19.042Z,12.75
2023-12-16T19:22:06.940Z,11.00
2023-12-16T19:24:54.777Z,12.23
2023-12-16T19:27:45.291Z,11.50
2023-12-16T19:30:33.034Z,12.23
2023-12-16T19:33:20.913Z,11.85
2023-12-16T19:36:09.075Z,11.82
2023-12-16T19:38:57.616Z,12.10
2023-12-16T19:41:45.476Z,14.05
2023-12-16T19:44:34.282Z,14.23
2023-12-16T19:47:26.192Z,13.10
2023-12-16T19:50:14.065Z,15.77
2023-12-16T19:53:01.951Z,14.50
2023-12-16T19:55:49.712Z,16.48
2023-12-16T19:58:37.447Z,19.33
2023-12-16T20:01:25.260Z,23.02
2023-12-16T20:04:16.042Z,22.80
2023-12-16T20:07:06.208Z,22.13
2023-12-16T20:09:54.244Z,19.98
2023-12-16T20:12:42.156Z,22.70
2023-12-16T20:15:29.858Z,18.52
2023-12-16T20:18:17.762Z,21.08
2023-12-16T20:21:05.833Z,20.67
2023-12-16T20:23:53.483Z,16.73
2023-12-16T20:26:41.196Z,14.60
2023-12-16T20:29:29.069Z,13.60
2023-12-16T20:32:17.665Z,12.77
2023-12-16T20:35:05.644Z,12.18
2023-12-16T20:38:05.125Z,10.70
2023-12-16T20:40:53.085Z,12.65
2023-12-16T20:43:44.392Z,9.70
2023-12-16T20:46:32.114Z,9.80
2023-12-16T20:49:19.796Z,9.57
2023-12-16T20:52:07.565Z,8.82
2023-12-16T20:58:28.582Z,7.97
2023-12-16T21:01:19.159Z,6.63
2023-12-16T21:04:07.135Z,7.90
2023-12-16T21:06:54.869Z,7.75
2023-12-16T21:09:42.656Z,9.90
2023-12-16T21:12:30.287Z,10.05
2023-12-16T21:15:18.203Z,11.57
2023-12-16T21:18:06.182Z,11.13
2023-12-16T21:20:53.997Z,12.48
2023-12-16T21:23:41.819Z,15.02
2023-12-16T21:26:30.148Z,13.07
2023-12-16T21:29:17.766Z,20.35
2023-12-16T21:32:05.705Z,15.88
2023-12-16T21:34:53.633Z,14.30
2023-12-16T21:37:41.701Z,13.73
2023-12-16T21:40:29.443Z,11.82
2023-12-16T21:43:17.184Z,12.73
2023-12-16T21:46:07.322Z,10.43
2023-12-16T21:48:55.067Z,10.48
2023-12-16T21:51:42.741Z,9.35
2023-12-16T21:54:30.420Z,8.25
2023-12-16T21:57:18.178Z,8.43
2023-12-16T22:00:06.323Z,7.68
2023-12-16T22:02:53.991Z,8.95
2023-12-16T22:05:41.704Z,8.70
2023-12-16T22:08:33.338Z,8.40
2023-12-16T22:11:23.819Z,7.45
2023-12-16T22:14:11.404Z,6.53
2023-12-16T22:16:59.120Z,7.95
2023-12-16T22:19:57.354Z,9.68
2023-12-16T22:22:45.013Z,9.93
2023-12-16T22:25:33.338Z,9.55
2023-12-16T22:28:21.064Z,8.23
2023-12-16T22:31:15.838Z,8.35
2023-12-16T22:34:03.521Z,9.15
2023-12-16T22:36:51.266Z,8.95
2023-12-16T22:39:38.998Z,9.18
2023-12-16T22:42:27.034Z,8.50
2023-12-16T22:45:14.809Z,8.93
2023-12-16T22:48:05.427Z,8.73
2023-12-16T22:50:55.768Z,7.88
2023-12-16T22:53:43.818Z,10.15
2023-12-16T22:56:31.455Z,8.85
2023-12-16T22:59:19.113Z,8.02
2023-12-16T23:02:06.797Z,8.55
2023-12-16T23:04:54.624Z,7.38
2023-12-16T23:07:42.230Z,7.60
2023-12-16T23:10:29.850Z,9.10
2023-12-16T23:13:19.118Z,8.52
2023-12-16T23:16:08.662Z,8.75
2023-12-16T23:18:56.877Z,8.95
2023-12-16T23:21:45.432Z,10.55
2023-12-16T23:24:33.140Z,9.55
2023-12-16T23:27:20.913Z,8.20
2023-12-16T23:30:11.637Z,8.63
2023-12-16T23:33:04.082Z,7.68
2023-12-16T23:35:51.847Z,10.27
2023-12-16T23:38:40.647Z,11.20
2023-12-16T23:41:28.519Z,11.02
2023-12-16T23:44:17.845Z,10.35
2023-12-16T23:47:05.446Z,10.27
2023-12-16T23:49:53.178Z,12.40
2023-12-16T23:52:40.876Z,8.70
2023-12-16T23:55:28.455Z,8.35
2023-12-16T23:58:16.219Z,10.80
